Latest Coastal Weather Observations for St Lawrence

IDQ60701

Issued at 12:32 pm EST Friday 1 July 2016 (issued every 10 minutes, with the page automatically refreshed every 10 minutes)

About coastal observations | Map of coastal stations | Coastal observations for QLD | Marine services | Other Formats
Station Details ID: 033210 Name: ST LAWRENCE Lat: -22.35 Lon: 149.52 Height: 9.19 m
Data from the previous 72 hours. | See also: Recent months at St Lawrence
Date/Time
EST
Temp
°C
Wind Pressure Rain since
9am
mm
Weather Cloud Vis
km
Sea
Height
m
Swell
Dir  Spd
kts
Gust
kts
hPa Trend Height
m
Period
s
Dir
01/12:30pm 23.5 CALM 0 0 1019.2 - 0.0 - - - - - - -
01/12:00pm 23.6 SSE 5 7 1019.6 - 0.0 - - - - - - -
01/11:30am 23.4 N 3 5 1020.0 - 0.0 - - - - - - -
01/11:00am 23.0 N 3 5 1020.4 - 0.0 - - - - - - -
01/10:30am 22.9 E 2 4 1020.9 - 0.0 - - - - - - -
01/10:00am 21.6 S 2 5 1021.2 - 0.0 - - - - - - -
01/09:30am 20.2 SSW 1 4 1021.3 - 0.0 - - - - - - -
01/09:00am 18.6 SSW 3 4 1021.5 - 0.0 - - - - - - -
01/08:30am 16.7 SSW 1 3 1021.4 - 0.0 - - - - - - -
01/08:00am 15.0 CALM 0 0 1021.3 - 0.0 - - - - - - -
01/07:30am 14.0 SSE 1 3 1020.9 - 0.0 - - - - - - -
01/07:00am 13.7 SSW 3 4 1020.7 - 0.0 - - - - - - -
01/06:30am 13.8 S 4 5 1020.3 - 0.0 - - - - - - -
01/06:00am 14.2 SSE 4 5 1019.8 - 0.0 - - - - - - -
01/05:30am 14.3 S 5 6 1019.5 - 0.0 - - - - - - -
01/05:00am 14.2 CALM 0 5 1019.1 - 0.0 - - - - - - -
01/04:30am 14.0 CALM 0 0 1019.1 - 0.0 - - - - - - -
01/04:00am 14.6 CALM 0 0 1018.9 - 0.0 - - - - - - -
01/03:30am 14.5 CALM 0 0 1019.0 - 0.0 - - - - - - -
01/03:00am 15.1 CALM 0 0 1019.2 - 0.0 - - - - - - -
01/02:30am 14.8 CALM 0 0 1019.3 - 0.0 - - - - - - -
01/02:00am 14.1 CALM 0 0 1019.5 - 0.0 - - - - - - -
01/01:30am 14.2 SW 2 3 1019.8 - 0.0 - - - - - - -
01/01:00am 14.2 CALM 0 0 1019.8 - 0.0 - - - - - - -
01/12:30am 14.4 CALM 0 0 1020.0 - 0.0 - - - - - - -
01/12:00am 14.7 WSW 2 4 1020.1 - 0.0 - - - - - - -
 
Date/Time
EST
Temp
°C
Wind Pressure Rain since
9am
mm
Weather Cloud Vis
km
Sea
Height
m
Swell
Dir  Spd
kts
Gust
kts
hPa Trend Height
m
Period
s
Dir
30/11:30pm 14.5 CALM 0 0 1020.4 - 0.0 - - - - - - -
30/11:00pm 14.6 CALM 0 0 1020.7 - 0.0 - - - - - - -
30/10:30pm 14.6 CALM 0 0 1020.8 - 0.0 - - - - - - -
30/10:00pm 14.8 SSW 1 4 1020.8 - 0.0 - - - - - - -
30/09:30pm 14.8 CALM 0 0 1020.8 - 0.0 - - - - - - -
30/09:00pm 15.1 WSW 4 5 1020.9 - 0.0 - - - - - - -
30/08:30pm 15.9 CALM 0 0 1021.0 - 0.0 - - - - - - -
30/08:00pm 15.9 CALM 0 0 1020.9 - 0.0 - - - - - - -
30/07:30pm 17.0 CALM 0 0 1020.7 - 0.0 - - - - - - -
30/07:00pm 17.5 CALM 0 0 1020.3 - 0.0 - - - - - - -
30/06:30pm 18.4 CALM 0 0 1019.9 - 0.0 - - - - - - -
30/06:00pm 19.7 CALM 0 0 1019.7 - 0.0 - - - - - - -
30/05:30pm 21.2 NE 1 4 1019.5 - 0.0 - - - - - - -
30/05:00pm 22.5 NE 5 6 1019.3 - 0.0 - - - - - - -
30/04:30pm 23.3 ENE 5 7 1019.1 - 0.0 - - - - - - -
30/04:00pm 23.4 NE 6 8 1018.8 - 0.0 - - - - - - -
30/03:30pm 23.9 NNE 5 8 1018.8 - 0.0 - - - - - - -
30/03:00pm 24.0 ENE 3 6 1019.0 - 0.0 - - - - - - -
30/02:30pm 24.3 N 1 5 1019.2 - 0.0 - - - - - - -
30/02:00pm 23.8 NE 4 7 1019.4 - 0.0 - - - - - - -
30/01:30pm 23.9 NE 4 6 1019.7 - 0.0 - - - - - - -
30/01:00pm 22.9 SSE 3 6 1020.1 - 0.0 - - - - - - -
30/12:30pm 22.3 SW 5 8 1020.7 - 0.0 - - - - - - -
30/12:00pm 21.4 SSW 5 7 1021.5 - 0.0 - - - - - - -
30/11:30am 20.9 S 5 9 1021.8 - 0.0 - - - - - - -
30/11:00am 20.9 SSE 4 8 1022.1 - 0.0 - - - - - - -
30/10:30am 20.0 SSW 5 9 1022.6 - 0.0 - - - - - - -
30/10:00am 18.7 S 5 9 1022.8 - 0.0 - - - - - - -
30/09:30am 17.9 SSW 6 9 1022.9 - 0.0 - - - - - - -
30/09:00am 16.4 SSW 6 9 1022.8 - 0.0 - - - - - - -
30/08:30am 15.1 SSW 5 10 1022.9 - 0.0 - - - - - - -
30/08:00am 12.5 SW 3 4 1022.7 - 0.0 - - - - - - -
30/07:30am 9.8 SW 1 3 1022.6 - 0.0 - - - - - - -
30/07:00am 9.2 SSW 4 6 1022.3 - 0.0 - - - - - - -
30/06:30am 8.9 SSW 4 5 1022.1 - 0.0 - - - - - - -
30/06:00am 8.0 CALM 0 0 1021.8 - 0.0 - - - - - - -
30/05:30am 8.2 WSW 3 4 1021.6 - 0.0 - - - - - - -
30/05:00am 8.2 S 3 4 1021.4 - 0.0 - - - - - - -
30/04:30am 7.8 SSW 3 4 1021.5 - 0.0 - - - - - - -
30/04:00am 7.5 SW 3 4 1021.5 - 0.0 - - - - - - -
30/03:30am 8.0 SW 2 3 1021.5 - 0.0 - - - - - - -
30/03:00am 7.8 SW 3 4 1021.8 - 0.0 - - - - - - -
30/02:30am 8.3 S 5 6 1022.0 - 0.0 - - - - - - -
30/02:00am 8.2 SW 2 3 1022.4 - 0.0 - - - - - - -
30/01:30am 8.7 SSW 4 5 1022.8 - 0.0 - - - - - - -
30/01:00am 8.0 SSW 3 4 1023.1 - 0.0 - - - - - - -
30/12:30am 8.4 SSW 3 4 1023.3 - 0.0 - - - - - - -
30/12:00am 8.7 SSW 3 5 1023.7 - 0.0 - - - - - - -
 
Date/Time
EST
Temp
°C
Wind Pressure Rain since
9am
mm
Weather Cloud Vis
km
Sea
Height
m
Swell
Dir  Spd
kts
Gust
kts
hPa Trend Height
m
Period
s
Dir
29/11:30pm 9.7 SW 3 4 1024.0 - 0.0 - - - - - - -
29/11:00pm 9.6 SW 3 4 1024.3 - 0.0 - - - - - - -
29/10:30pm 9.2 WSW 1 4 1024.3 - 0.0 - - - - - - -
29/10:00pm 10.1 CALM 0 0 1024.5 - 0.0 - - - - - - -
29/09:30pm 10.7 WSW 1 4 1024.4 - 0.0 - - - - - - -
29/09:00pm 14.6 ESE 4 6 1024.3 - 0.0 - - - - - - -
29/08:30pm 12.5 ENE 2 3 1024.3 - 0.0 - - - - - - -
29/08:00pm 13.8 CALM 0 1 1024.0 - 0.0 - - - - - - -
29/07:30pm 15.8 SE 5 7 1023.7 - 0.0 - - - - - - -
29/07:00pm 15.3 SE 4 5 1023.4 - 0.0 - - - - - - -
29/06:30pm 15.8 SE 3 5 1023.1 - 0.0 - - - - - - -
29/06:00pm 16.0 SE 3 5 1022.8 - 0.0 - - - - - - -
29/05:30pm 18.2 ESE 3 4 1022.6 - 0.0 - - - - - - -
29/05:00pm 20.2 SE 5 6 1022.2 - 0.0 - - - - - - -
29/04:30pm 21.1 SE 4 7 1022.1 - 0.0 - - - - - - -
29/04:00pm 21.4 E 6 9 1022.1 - 0.0 - - - - - - -
29/03:30pm 22.0 E 5 9 1022.1 - 0.0 - - - - - - -
29/03:00pm 21.8 E 6 9 1022.0 - 0.0 - - - - - - -
29/02:30pm 21.6 SSE 5 8 1022.1 - 0.0 - - - - - - -
29/02:00pm 20.5 SSE 6 9 1022.2 - 0.0 - - - - - - -
29/01:30pm 21.1 S 6 10 1022.5 - 0.0 - - - - - - -
29/01:00pm 20.0 SSE 6 9 1022.9 - 0.0 - - - - - - -
29/12:30pm 19.4 SE 5 11 1023.7 - 0.0 - - - - - - -
29/12:00pm 19.3 SSE 7 12 1024.3 - 0.0 - - - - - - -
29/11:30am 18.2 SSE 7 11 1024.6 - 0.0 - - - - - - -
29/11:00am 17.4 S 8 13 1025.1 - 0.0 - - - - - - -
29/10:30am 16.2 S 9 13 1025.6 - 0.0 - - - - - - -
29/10:00am 15.1 S 9 15 1025.9 - 0.0 - - - - - - -
29/09:30am 14.0 S 10 15 1025.9 - 0.0 - - - - - - -
29/09:00am 12.8 S 11 16 1026.0 - 0.0 - - - - - - -
29/08:30am 11.8 S 9 14 1026.1 - 0.0 - - - - - - -
29/08:00am 10.7 S 7 12 1026.1 - 0.0 - - - - - - -
29/07:30am 9.5 S 7 10 1025.9 - 0.0 - - - - - - -
29/07:00am 8.3 S 6 8 1025.5 - 0.0 - - - - - - -
29/06:30am 8.6 S 6 9 1025.1 - 0.0 - - - - - - -
29/06:00am 8.7 S 7 11 1025.1 - 0.0 - - - - - - -
29/05:30am 9.0 S 7 9 1024.9 - 0.0 - - - - - - -
29/05:00am 9.1 S 8 11 1024.7 - 0.0 - - - - - - -
29/04:30am 9.6 S 8 11 1024.5 - 0.0 - - - - - - -
29/04:00am 9.4 S 9 11 1024.4 - 0.0 - - - - - - -
29/03:30am 9.6 S 8 12 1024.6 - 0.0 - - - - - - -
29/03:00am 9.5 S 7 10 1024.4 - 0.0 - - - - - - -
29/02:30am 9.6 S 5 7 1024.6 - 0.0 - - - - - - -
29/02:00am 9.3 S 5 8 1024.8 - 0.0 - - - - - - -
29/01:30am 7.6 S 2 4 1025.1 - 0.0 - - - - - - -
29/01:00am 8.0 SSW 4 5 1025.3 - 0.0 - - - - - - -
29/12:30am 7.6 CALM 0 0 1025.3 - 0.0 - - - - - - -
29/12:00am 7.7 CALM 0 0 1025.3 - 0.0 - - - - - - -
 
Date/Time
EST
Temp
°C
Wind Pressure Rain since
9am
mm
Weather Cloud Vis
km
Sea
Height
m
Swell
Dir  Spd
kts
Gust
kts
hPa Trend Height
m
Period
s
Dir
28/11:30pm 8.0 W 4 5 1025.3 - 0.0 - - - - - - -
28/11:00pm 7.8 W 4 5 1025.4 - 0.0 - - - - - - -
28/10:30pm 8.2 W 2 3 1025.2 - 0.0 - - - - - - -
28/10:00pm 7.8 CALM 0 0 1025.0 - 0.0 - - - - - - -
28/09:30pm 9.3 CALM 0 0 1025.0 - 0.0 - - - - - - -
28/09:00pm 10.8 SSW 3 4 1025.0 - 0.0 - - - - - - -
28/08:30pm 10.9 SW 4 5 1024.9 - 0.0 - - - - - - -
28/08:00pm 10.8 SW 3 4 1024.7 - 0.0 - - - - - - -
28/07:30pm 12.0 SW 3 4 1024.3 - 0.0 - - - - - - -
28/07:00pm 13.1 SSW 4 5 1024.0 - 0.0 - - - - - - -
28/06:30pm 14.0 SSW 4 6 1023.5 - 0.0 - - - - - - -
28/06:00pm 14.8 SSW 5 7 1023.1 - 0.0 - - - - - - -
28/05:30pm 15.6 S 7 10 1022.7 - 0.0 - - - - - - -
28/05:00pm 16.8 S 8 12 1022.1 - 0.0 - - - - - - -
28/04:30pm 17.4 S 9 14 1021.8 - 0.0 - - - - - - -
28/04:00pm 17.8 S 9 15 1021.5 - 0.0 - - - - - - -
28/03:30pm 18.2 SSW 8 13 1021.5 - 0.0 - - - - - - -
28/03:00pm 18.0 SSW 8 14 1021.4 - 0.0 - - - - - - -
28/02:30pm 17.5 S 10 16 1021.4 - 0.0 - - - - - - -
28/02:00pm 18.0 S 8 12 1021.4 - 0.0 - - - - - - -
28/01:30pm 17.6 S 9 13 1021.6 - 0.0 - - - - - - -
28/01:00pm 16.8 S 9 16 1021.9 - 0.0 - - - - - - -

Other Formats:

Comma delimited format used in spreadsheet applications
http://www.bom.gov.au/fwo/IDQ60701/IDQ60701.95369.axf

JavaScript Object Notation format (JSON) in row-major order
http://www.bom.gov.au/fwo/IDQ60701/IDQ60701.95369.json